sensor_id;sensor_type;location;lat;lon;timestamp;P1;durP1;ratioP1;P2;durP2;ratioP2
36575;SDS011;45700;50.930;5.168;2023-09-18T00:01:17;7.85;;;4.35;;
36575;SDS011;45700;50.930;5.168;2023-09-18T00:05:19;13.65;;;4.15;;
36575;SDS011;45700;50.930;5.168;2023-09-18T00:09:21;6.78;;;3.67;;
36575;SDS011;45700;50.930;5.168;2023-09-18T00:13:22;9.80;;;4.40;;
36575;SDS011;45700;50.930;5.168;2023-09-18T00:17:23;6.57;;;4.25;;
36575;SDS011;45700;50.930;5.168;2023-09-18T00:21:24;7.05;;;4.20;;
36575;SDS011;45700;50.930;5.168;2023-09-18T00:25:25;9.70;;;4.43;;
36575;SDS011;45700;50.930;5.168;2023-09-18T00:29:26;7.60;;;4.07;;
36575;SDS011;45700;50.930;5.168;2023-09-18T00:33:27;6.22;;;4.20;;
36575;SDS011;45700;50.930;5.168;2023-09-18T00:37:29;15.98;;;5.00;;
36575;SDS011;45700;50.930;5.168;2023-09-18T00:41:30;11.02;;;5.35;;
36575;SDS011;45700;50.930;5.168;2023-09-18T00:45:31;10.15;;;5.07;;
36575;SDS011;45700;50.930;5.168;2023-09-18T00:49:32;13.65;;;5.40;;
36575;SDS011;45700;50.930;5.168;2023-09-18T00:53:33;14.68;;;4.55;;
36575;SDS011;45700;50.930;5.168;2023-09-18T00:57:34;10.88;;;4.70;;
36575;SDS011;45700;50.930;5.168;2023-09-18T01:01:35;14.07;;;6.07;;
36575;SDS011;45700;50.930;5.168;2023-09-18T01:05:37;11.85;;;5.53;;
36575;SDS011;45700;50.930;5.168;2023-09-18T01:09:38;9.48;;;4.57;;
36575;SDS011;45700;50.930;5.168;2023-09-18T01:13:45;10.35;;;4.90;;
36575;SDS011;45700;50.930;5.168;2023-09-18T01:17:47;23.58;;;6.00;;
36575;SDS011;45700;50.930;5.168;2023-09-18T01:21:48;13.75;;;5.78;;
36575;SDS011;45700;50.930;5.168;2023-09-18T01:25:49;16.35;;;5.60;;
36575;SDS011;45700;50.930;5.168;2023-09-18T01:29:51;18.95;;;5.18;;
36575;SDS011;45700;50.930;5.168;2023-09-18T01:33:53;13.13;;;4.45;;
36575;SDS011;45700;50.930;5.168;2023-09-18T01:37:58;12.45;;;4.82;;
36575;SDS011;45700;50.930;5.168;2023-09-18T01:42:00;8.48;;;4.55;;
36575;SDS011;45700;50.930;5.168;2023-09-18T01:46:02;13.05;;;4.85;;
36575;SDS011;45700;50.930;5.168;2023-09-18T01:50:03;8.90;;;4.55;;
36575;SDS011;45700;50.930;5.168;2023-09-18T01:54:05;8.77;;;3.90;;
36575;SDS011;45700;50.930;5.168;2023-09-18T01:58:06;10.48;;;4.13;;
36575;SDS011;45700;50.930;5.168;2023-09-18T02:02:08;11.63;;;3.75;;
36575;SDS011;45700;50.930;5.168;2023-09-18T02:06:09;9.90;;;4.50;;
36575;SDS011;45700;50.930;5.168;2023-09-18T02:10:10;11.27;;;3.67;;
36575;SDS011;45700;50.930;5.168;2023-09-18T02:14:14;7.07;;;3.92;;
36575;SDS011;45700;50.930;5.168;2023-09-18T02:18:15;6.70;;;3.10;;
36575;SDS011;45700;50.930;5.168;2023-09-18T02:22:17;8.63;;;2.92;;
36575;SDS011;45700;50.930;5.168;2023-09-18T02:26:19;4.30;;;2.60;;
36575;SDS011;45700;50.930;5.168;2023-09-18T02:30:20;11.13;;;4.10;;
36575;SDS011;45700;50.930;5.168;2023-09-18T02:34:21;9.50;;;4.28;;
36575;SDS011;45700;50.930;5.168;2023-09-18T02:38:22;13.77;;;3.55;;
36575;SDS011;45700;50.930;5.168;2023-09-18T02:42:23;7.47;;;2.95;;
36575;SDS011;45700;50.930;5.168;2023-09-18T02:46:24;6.88;;;2.60;;
36575;SDS011;45700;50.930;5.168;2023-09-18T02:50:25;3.63;;;2.40;;
36575;SDS011;45700;50.930;5.168;2023-09-18T02:54:26;6.35;;;2.28;;
36575;SDS011;45700;50.930;5.168;2023-09-18T02:58:27;4.00;;;1.55;;
36575;SDS011;45700;50.930;5.168;2023-09-18T03:02:30;4.40;;;1.67;;
36575;SDS011;45700;50.930;5.168;2023-09-18T03:06:31;3.47;;;1.25;;
36575;SDS011;45700;50.930;5.168;2023-09-18T03:10:32;2.95;;;1.42;;
36575;SDS011;45700;50.930;5.168;2023-09-18T03:14:34;3.40;;;1.35;;
36575;SDS011;45700;50.930;5.168;2023-09-18T03:18:35;3.00;;;1.50;;
36575;SDS011;45700;50.930;5.168;2023-09-18T03:22:37;1.67;;;1.35;;
36575;SDS011;45700;50.930;5.168;2023-09-18T03:26:38;2.03;;;1.20;;
36575;SDS011;45700;50.930;5.168;2023-09-18T03:30:39;4.28;;;1.30;;
36575;SDS011;45700;50.930;5.168;2023-09-18T03:34:40;3.30;;;1.25;;
36575;SDS011;45700;50.930;5.168;2023-09-18T03:38:41;5.53;;;1.73;;
36575;SDS011;45700;50.930;5.168;2023-09-18T03:42:42;2.00;;;1.10;;
36575;SDS011;45700;50.930;5.168;2023-09-18T03:46:43;3.28;;;1.63;;
36575;SDS011;45700;50.930;5.168;2023-09-18T03:50:43;1.35;;;1.10;;
36575;SDS011;45700;50.930;5.168;2023-09-18T03:54:44;4.03;;;2.42;;
36575;SDS011;45700;50.930;5.168;2023-09-18T03:58:45;7.85;;;1.67;;
36575;SDS011;45700;50.930;5.168;2023-09-18T04:02:49;6.10;;;1.63;;
36575;SDS011;45700;50.930;5.168;2023-09-18T04:06:50;4.85;;;1.38;;
36575;SDS011;45700;50.930;5.168;2023-09-18T04:10:51;2.25;;;1.50;;
36575;SDS011;45700;50.930;5.168;2023-09-18T04:14:55;4.30;;;1.80;;
36575;SDS011;45700;50.930;5.168;2023-09-18T04:18:56;4.97;;;1.70;;
36575;SDS011;45700;50.930;5.168;2023-09-18T04:27:17;3.05;;;1.33;;
36575;SDS011;45700;50.930;5.168;2023-09-18T04:31:18;6.18;;;1.30;;
36575;SDS011;45700;50.930;5.168;2023-09-18T04:35:19;3.88;;;1.90;;
36575;SDS011;45700;50.930;5.168;2023-09-18T04:39:20;1.88;;;0.93;;
36575;SDS011;45700;50.930;5.168;2023-09-18T04:43:22;4.35;;;1.52;;
36575;SDS011;45700;50.930;5.168;2023-09-18T04:47:24;3.85;;;1.20;;
36575;SDS011;45700;50.930;5.168;2023-09-18T04:51:25;3.67;;;0.90;;
36575;SDS011;45700;50.930;5.168;2023-09-18T04:55:26;4.68;;;1.10;;
36575;SDS011;45700;50.930;5.168;2023-09-18T04:59:27;3.67;;;1.15;;
36575;SDS011;45700;50.930;5.168;2023-09-18T05:03:28;7.10;;;1.30;;
36575;SDS011;45700;50.930;5.168;2023-09-18T05:07:30;4.80;;;1.52;;
36575;SDS011;45700;50.930;5.168;2023-09-18T05:11:32;1.42;;;1.05;;
36575;SDS011;45700;50.930;5.168;2023-09-18T05:15:34;1.65;;;1.13;;
36575;SDS011;45700;50.930;5.168;2023-09-18T05:19:35;2.25;;;1.05;;
36575;SDS011;45700;50.930;5.168;2023-09-18T05:23:36;7.65;;;0.93;;
36575;SDS011;45700;50.930;5.168;2023-09-18T05:27:37;2.58;;;0.80;;
36575;SDS011;45700;50.930;5.168;2023-09-18T05:31:43;3.10;;;1.20;;
36575;SDS011;45700;50.930;5.168;2023-09-18T05:35:45;2.55;;;0.93;;
36575;SDS011;45700;50.930;5.168;2023-09-18T05:39:46;1.65;;;1.00;;
36575;SDS011;45700;50.930;5.168;2023-09-18T05:43:48;2.17;;;1.10;;
36575;SDS011;45700;50.930;5.168;2023-09-18T05:47:50;3.80;;;1.23;;
36575;SDS011;45700;50.930;5.168;2023-09-18T05:51:51;3.80;;;1.10;;
36575;SDS011;45700;50.930;5.168;2023-09-18T05:55:52;3.05;;;0.95;;
36575;SDS011;45700;50.930;5.168;2023-09-18T05:59:56;2.67;;;0.90;;
36575;SDS011;45700;50.930;5.168;2023-09-18T06:03:56;5.60;;;1.05;;
36575;SDS011;45700;50.930;5.168;2023-09-18T06:07:57;2.10;;;0.85;;
36575;SDS011;45700;50.930;5.168;2023-09-18T06:11:59;2.45;;;0.90;;
36575;SDS011;45700;50.930;5.168;2023-09-18T06:16:00;6.57;;;1.02;;
36575;SDS011;45700;50.930;5.168;2023-09-18T06:20:07;1.55;;;0.98;;
36575;SDS011;45700;50.930;5.168;2023-09-18T06:24:12;3.25;;;1.00;;
36575;SDS011;45700;50.930;5.168;2023-09-18T06:28:13;1.85;;;1.00;;
36575;SDS011;45700;50.930;5.168;2023-09-18T06:32:14;2.83;;;1.13;;
36575;SDS011;45700;50.930;5.168;2023-09-18T06:36:15;1.73;;;0.90;;
36575;SDS011;45700;50.930;5.168;2023-09-18T06:40:17;5.38;;;0.82;;
36575;SDS011;45700;50.930;5.168;2023-09-18T06:44:18;3.15;;;1.20;;
36575;SDS011;45700;50.930;5.168;2023-09-18T06:48:19;1.40;;;0.70;;
36575;SDS011;45700;50.930;5.168;2023-09-18T06:52:21;2.97;;;0.80;;
36575;SDS011;45700;50.930;5.168;2023-09-18T06:56:23;2.05;;;0.80;;
36575;SDS011;45700;50.930;5.168;2023-09-18T07:00:24;8.18;;;1.17;;
36575;SDS011;45700;50.930;5.168;2023-09-18T07:04:25;4.13;;;1.10;;
36575;SDS011;45700;50.930;5.168;2023-09-18T07:08:26;2.55;;;1.10;;
36575;SDS011;45700;50.930;5.168;2023-09-18T07:12:27;2.22;;;0.70;;
36575;SDS011;45700;50.930;5.168;2023-09-18T07:16:28;1.67;;;0.98;;
36575;SDS011;45700;50.930;5.168;2023-09-18T07:20:29;3.17;;;1.00;;
36575;SDS011;45700;50.930;5.168;2023-09-18T07:24:30;3.22;;;0.82;;
36575;SDS011;45700;50.930;5.168;2023-09-18T07:28:31;4.63;;;1.23;;
36575;SDS011;45700;50.930;5.168;2023-09-18T07:32:32;2.78;;;1.00;;
36575;SDS011;45700;50.930;5.168;2023-09-18T07:36:33;1.52;;;0.82;;
36575;SDS011;45700;50.930;5.168;2023-09-18T07:40:34;0.85;;;0.70;;
36575;SDS011;45700;50.930;5.168;2023-09-18T07:44:35;2.05;;;0.98;;
36575;SDS011;45700;50.930;5.168;2023-09-18T07:48:36;3.65;;;1.48;;
36575;SDS011;45700;50.930;5.168;2023-09-18T07:52:37;5.50;;;1.00;;
36575;SDS011;45700;50.930;5.168;2023-09-18T07:56:38;2.72;;;1.00;;
36575;SDS011;45700;50.930;5.168;2023-09-18T08:00:39;4.47;;;0.73;;
36575;SDS011;45700;50.930;5.168;2023-09-18T08:04:41;3.88;;;1.00;;
36575;SDS011;45700;50.930;5.168;2023-09-18T08:08:42;4.18;;;1.05;;
36575;SDS011;45700;50.930;5.168;2023-09-18T08:12:43;1.75;;;1.08;;
36575;SDS011;45700;50.930;5.168;2023-09-18T08:16:44;2.45;;;1.05;;
36575;SDS011;45700;50.930;5.168;2023-09-18T08:20:46;3.47;;;0.73;;
36575;SDS011;45700;50.930;5.168;2023-09-18T08:24:47;2.90;;;1.13;;
36575;SDS011;45700;50.930;5.168;2023-09-18T08:28:49;2.33;;;1.08;;
36575;SDS011;45700;50.930;5.168;2023-09-18T08:32:50;1.88;;;1.23;;
36575;SDS011;45700;50.930;5.168;2023-09-18T08:36:51;2.55;;;0.90;;
36575;SDS011;45700;50.930;5.168;2023-09-18T08:40:53;1.52;;;1.10;;
36575;SDS011;45700;50.930;5.168;2023-09-18T08:44:54;2.15;;;0.77;;
36575;SDS011;45700;50.930;5.168;2023-09-18T08:48:57;2.28;;;1.30;;
36575;SDS011;45700;50.930;5.168;2023-09-18T08:52:58;3.53;;;1.00;;
36575;SDS011;45700;50.930;5.168;2023-09-18T08:56:59;3.92;;;1.23;;
36575;SDS011;45700;50.930;5.168;2023-09-18T09:01:03;4.03;;;0.95;;
36575;SDS011;45700;50.930;5.168;2023-09-18T09:05:06;3.17;;;1.00;;
36575;SDS011;45700;50.930;5.168;2023-09-18T09:09:07;5.38;;;1.05;;
36575;SDS011;45700;50.930;5.168;2023-09-18T09:13:08;2.88;;;1.08;;
36575;SDS011;45700;50.930;5.168;2023-09-18T09:17:09;1.85;;;1.17;;
36575;SDS011;45700;50.930;5.168;2023-09-18T09:21:10;5.53;;;1.90;;
36575;SDS011;45700;50.930;5.168;2023-09-18T09:29:21;3.55;;;1.70;;
36575;SDS011;45700;50.930;5.168;2023-09-18T09:33:22;4.20;;;1.55;;
36575;SDS011;45700;50.930;5.168;2023-09-18T09:37:29;2.50;;;1.00;;
36575;SDS011;45700;50.930;5.168;2023-09-18T09:41:33;1.45;;;1.15;;
36575;SDS011;45700;50.930;5.168;2023-09-18T09:45:35;3.97;;;1.50;;
36575;SDS011;45700;50.930;5.168;2023-09-18T09:49:46;3.88;;;1.50;;
36575;SDS011;45700;50.930;5.168;2023-09-18T09:53:47;4.13;;;1.40;;
36575;SDS011;45700;50.930;5.168;2023-09-18T09:57:52;5.13;;;1.48;;
36575;SDS011;45700;50.930;5.168;2023-09-18T10:01:53;2.65;;;1.40;;
36575;SDS011;45700;50.930;5.168;2023-09-18T10:05:54;5.82;;;1.48;;
36575;SDS011;45700;50.930;5.168;2023-09-18T10:09:56;4.88;;;1.60;;
36575;SDS011;45700;50.930;5.168;2023-09-18T10:13:59;4.53;;;1.50;;
36575;SDS011;45700;50.930;5.168;2023-09-18T10:18:01;4.38;;;1.38;;
36575;SDS011;45700;50.930;5.168;2023-09-18T10:22:11;3.15;;;1.40;;
36575;SDS011;45700;50.930;5.168;2023-09-18T10:26:13;2.55;;;1.23;;
36575;SDS011;45700;50.930;5.168;2023-09-18T10:30:16;7.53;;;1.42;;
36575;SDS011;45700;50.930;5.168;2023-09-18T10:34:23;4.95;;;1.67;;
36575;SDS011;45700;50.930;5.168;2023-09-18T10:38:24;1.75;;;1.30;;
36575;SDS011;45700;50.930;5.168;2023-09-18T10:42:26;2.65;;;1.55;;
36575;SDS011;45700;50.930;5.168;2023-09-18T10:46:27;4.80;;;1.65;;
36575;SDS011;45700;50.930;5.168;2023-09-18T10:50:29;3.75;;;1.75;;
36575;SDS011;45700;50.930;5.168;2023-09-18T10:54:30;3.22;;;1.42;;
36575;SDS011;45700;50.930;5.168;2023-09-18T10:58:33;2.70;;;1.67;;
36575;SDS011;45700;50.930;5.168;2023-09-18T11:02:41;4.88;;;1.70;;
36575;SDS011;45700;50.930;5.168;2023-09-18T11:07:04;3.45;;;1.30;;
36575;SDS011;45700;50.930;5.168;2023-09-18T11:11:08;4.78;;;1.58;;
36575;SDS011;45700;50.930;5.168;2023-09-18T11:15:25;2.53;;;1.50;;
36575;SDS011;45700;50.930;5.168;2023-09-18T11:19:27;1.75;;;1.20;;
36575;SDS011;45700;50.930;5.168;2023-09-18T11:23:34;1.27;;;1.17;;
36575;SDS011;45700;50.930;5.168;2023-09-18T11:28:12;4.82;;;1.42;;
36575;SDS011;45700;50.930;5.168;2023-09-18T11:32:03;2.10;;;1.10;;
36575;SDS011;45700;50.930;5.168;2023-09-18T11:36:15;2.83;;;1.45;;
36575;SDS011;45700;50.930;5.168;2023-09-18T11:40:31;5.90;;;1.15;;
36575;SDS011;45700;50.930;5.168;2023-09-18T11:44:38;4.95;;;1.75;;
36575;SDS011;45700;50.930;5.168;2023-09-18T11:48:48;4.07;;;1.30;;
36575;SDS011;45700;50.930;5.168;2023-09-18T11:52:50;2.85;;;1.65;;
36575;SDS011;45700;50.930;5.168;2023-09-18T11:56:52;4.10;;;1.20;;
36575;SDS011;45700;50.930;5.168;2023-09-18T12:00:53;2.58;;;1.27;;
36575;SDS011;45700;50.930;5.168;2023-09-18T12:04:55;3.75;;;1.40;;
36575;SDS011;45700;50.930;5.168;2023-09-18T12:08:56;4.60;;;1.40;;
36575;SDS011;45700;50.930;5.168;2023-09-18T12:12:57;1.38;;;1.27;;
36575;SDS011;45700;50.930;5.168;2023-09-18T12:17:02;2.63;;;1.30;;
36575;SDS011;45700;50.930;5.168;2023-09-18T12:21:07;3.05;;;1.40;;
36575;SDS011;45700;50.930;5.168;2023-09-18T12:25:08;4.13;;;1.13;;
36575;SDS011;45700;50.930;5.168;2023-09-18T12:29:09;3.22;;;1.15;;
36575;SDS011;45700;50.930;5.168;2023-09-18T12:33:12;2.53;;;1.15;;
36575;SDS011;45700;50.930;5.168;2023-09-18T12:37:13;3.17;;;1.20;;
36575;SDS011;45700;50.930;5.168;2023-09-18T12:41:14;4.28;;;1.10;;
36575;SDS011;45700;50.930;5.168;2023-09-18T12:45:15;3.70;;;1.38;;
36575;SDS011;45700;50.930;5.168;2023-09-18T12:49:20;3.40;;;1.20;;
36575;SDS011;45700;50.930;5.168;2023-09-18T12:53:22;1.63;;;1.10;;
36575;SDS011;45700;50.930;5.168;2023-09-18T12:57:23;3.83;;;1.10;;
36575;SDS011;45700;50.930;5.168;2023-09-18T13:01:24;1.83;;;1.00;;
36575;SDS011;45700;50.930;5.168;2023-09-18T13:05:25;2.45;;;0.90;;
36575;SDS011;45700;50.930;5.168;2023-09-18T13:09:26;2.22;;;1.20;;
36575;SDS011;45700;50.930;5.168;2023-09-18T13:13:28;1.48;;;1.08;;
36575;SDS011;45700;50.930;5.168;2023-09-18T13:17:40;3.47;;;1.67;;
36575;SDS011;45700;50.930;5.168;2023-09-18T13:21:47;1.85;;;1.27;;
36575;SDS011;45700;50.930;5.168;2023-09-18T13:25:49;1.58;;;0.93;;
36575;SDS011;45700;50.930;5.168;2023-09-18T13:29:51;1.63;;;0.95;;
36575;SDS011;45700;50.930;5.168;2023-09-18T13:33:54;1.42;;;1.00;;
36575;SDS011;45700;50.930;5.168;2023-09-18T13:37:55;2.63;;;1.67;;
36575;SDS011;45700;50.930;5.168;2023-09-18T13:41:56;4.82;;;1.08;;
36575;SDS011;45700;50.930;5.168;2023-09-18T13:45:57;1.75;;;0.88;;
36575;SDS011;45700;50.930;5.168;2023-09-18T13:49:59;2.70;;;0.95;;
36575;SDS011;45700;50.930;5.168;2023-09-18T13:54:00;4.45;;;1.45;;
36575;SDS011;45700;50.930;5.168;2023-09-18T13:58:03;2.47;;;0.90;;
36575;SDS011;45700;50.930;5.168;2023-09-18T14:02:05;1.42;;;1.00;;
36575;SDS011;45700;50.930;5.168;2023-09-18T14:06:06;5.85;;;1.33;;
36575;SDS011;45700;50.930;5.168;2023-09-18T14:10:08;3.25;;;1.10;;
36575;SDS011;45700;50.930;5.168;2023-09-18T14:14:10;2.10;;;0.77;;
36575;SDS011;45700;50.930;5.168;2023-09-18T14:18:11;1.10;;;0.75;;
36575;SDS011;45700;50.930;5.168;2023-09-18T14:22:13;3.30;;;0.75;;
36575;SDS011;45700;50.930;5.168;2023-09-18T14:26:14;2.42;;;0.82;;
36575;SDS011;45700;50.930;5.168;2023-09-18T14:30:15;1.08;;;0.82;;
36575;SDS011;45700;50.930;5.168;2023-09-18T14:34:18;2.85;;;1.10;;
36575;SDS011;45700;50.930;5.168;2023-09-18T14:38:19;2.35;;;0.88;;
36575;SDS011;45700;50.930;5.168;2023-09-18T14:42:20;0.77;;;0.60;;
36575;SDS011;45700;50.930;5.168;2023-09-18T14:46:21;2.38;;;0.77;;
36575;SDS011;45700;50.930;5.168;2023-09-18T14:50:22;2.10;;;0.90;;
36575;SDS011;45700;50.930;5.168;2023-09-18T14:54:24;1.95;;;0.90;;
36575;SDS011;45700;50.930;5.168;2023-09-18T14:58:25;1.25;;;1.00;;
36575;SDS011;45700;50.930;5.168;2023-09-18T15:02:26;1.13;;;0.70;;
36575;SDS011;45700;50.930;5.168;2023-09-18T15:06:30;3.28;;;1.05;;
36575;SDS011;45700;50.930;5.168;2023-09-18T15:10:31;1.38;;;0.98;;
36575;SDS011;45700;50.930;5.168;2023-09-18T15:14:32;1.15;;;0.82;;
36575;SDS011;45700;50.930;5.168;2023-09-18T15:18:33;1.23;;;0.70;;
36575;SDS011;45700;50.930;5.168;2023-09-18T15:22:34;2.35;;;0.85;;
36575;SDS011;45700;50.930;5.168;2023-09-18T15:26:35;0.60;;;0.60;;
36575;SDS011;45700;50.930;5.168;2023-09-18T15:30:36;1.33;;;1.00;;
36575;SDS011;45700;50.930;5.168;2023-09-18T15:34:37;1.40;;;1.13;;
36575;SDS011;45700;50.930;5.168;2023-09-18T15:38:38;2.13;;;0.90;;
36575;SDS011;45700;50.930;5.168;2023-09-18T15:42:39;2.08;;;0.98;;
36575;SDS011;45700;50.930;5.168;2023-09-18T15:46:40;2.03;;;1.20;;
36575;SDS011;45700;50.930;5.168;2023-09-18T15:50:41;5.40;;;1.10;;
36575;SDS011;45700;50.930;5.168;2023-09-18T15:54:44;1.17;;;0.90;;
36575;SDS011;45700;50.930;5.168;2023-09-18T15:58:45;2.05;;;1.02;;
36575;SDS011;45700;50.930;5.168;2023-09-18T16:02:46;3.22;;;0.90;;
36575;SDS011;45700;50.930;5.168;2023-09-18T16:06:49;3.30;;;1.17;;
36575;SDS011;45700;50.930;5.168;2023-09-18T16:10:50;6.57;;;1.35;;
36575;SDS011;45700;50.930;5.168;2023-09-18T16:14:52;2.35;;;1.02;;
36575;SDS011;45700;50.930;5.168;2023-09-18T16:18:53;3.50;;;1.15;;
36575;SDS011;45700;50.930;5.168;2023-09-18T16:22:57;1.48;;;1.05;;
36575;SDS011;45700;50.930;5.168;2023-09-18T16:26:58;2.72;;;1.10;;
36575;SDS011;45700;50.930;5.168;2023-09-18T16:30:59;1.55;;;0.80;;
36575;SDS011;45700;50.930;5.168;2023-09-18T16:35:05;2.97;;;1.35;;
36575;SDS011;45700;50.930;5.168;2023-09-18T16:39:06;5.95;;;1.40;;
36575;SDS011;45700;50.930;5.168;2023-09-18T16:43:07;2.15;;;1.10;;
36575;SDS011;45700;50.930;5.168;2023-09-18T16:47:09;2.13;;;1.10;;
36575;SDS011;45700;50.930;5.168;2023-09-18T16:51:10;1.33;;;0.80;;
36575;SDS011;45700;50.930;5.168;2023-09-18T16:55:11;5.30;;;1.77;;
36575;SDS011;45700;50.930;5.168;2023-09-18T16:59:13;1.65;;;1.13;;
36575;SDS011;45700;50.930;5.168;2023-09-18T17:03:14;2.15;;;1.20;;
36575;SDS011;45700;50.930;5.168;2023-09-18T17:07:15;2.53;;;1.38;;
36575;SDS011;45700;50.930;5.168;2023-09-18T17:11:16;7.00;;;1.30;;
36575;SDS011;45700;50.930;5.168;2023-09-18T17:15:17;3.90;;;1.00;;
36575;SDS011;45700;50.930;5.168;2023-09-18T17:19:18;1.48;;;1.00;;
36575;SDS011;45700;50.930;5.168;2023-09-18T17:23:19;2.47;;;0.77;;
36575;SDS011;45700;50.930;5.168;2023-09-18T17:27:20;2.28;;;0.80;;
36575;SDS011;45700;50.930;5.168;2023-09-18T17:31:21;5.47;;;0.98;;
36575;SDS011;45700;50.930;5.168;2023-09-18T17:35:23;2.08;;;1.08;;
36575;SDS011;45700;50.930;5.168;2023-09-18T17:39:24;2.25;;;1.20;;
36575;SDS011;45700;50.930;5.168;2023-09-18T17:43:25;2.47;;;1.00;;
36575;SDS011;45700;50.930;5.168;2023-09-18T17:47:26;3.65;;;0.85;;
36575;SDS011;45700;50.930;5.168;2023-09-18T17:51:27;3.20;;;0.85;;
36575;SDS011;45700;50.930;5.168;2023-09-18T17:55:28;6.68;;;0.70;;
36575;SDS011;45700;50.930;5.168;2023-09-18T17:59:29;3.58;;;1.00;;
36575;SDS011;45700;50.930;5.168;2023-09-18T18:03:30;1.83;;;0.90;;
36575;SDS011;45700;50.930;5.168;2023-09-18T18:07:31;1.00;;;0.88;;
36575;SDS011;45700;50.930;5.168;2023-09-18T18:11:32;3.08;;;1.05;;
36575;SDS011;45700;50.930;5.168;2023-09-18T18:15:38;2.85;;;0.90;;
36575;SDS011;45700;50.930;5.168;2023-09-18T18:19:39;1.45;;;0.82;;
36575;SDS011;45700;50.930;5.168;2023-09-18T18:23:40;3.58;;;1.08;;
36575;SDS011;45700;50.930;5.168;2023-09-18T18:27:41;3.90;;;0.93;;
36575;SDS011;45700;50.930;5.168;2023-09-18T18:31:44;3.10;;;1.20;;
36575;SDS011;45700;50.930;5.168;2023-09-18T18:35:46;3.92;;;0.90;;
36575;SDS011;45700;50.930;5.168;2023-09-18T18:39:47;0.98;;;0.80;;
36575;SDS011;45700;50.930;5.168;2023-09-18T18:43:48;6.05;;;1.58;;
36575;SDS011;45700;50.930;5.168;2023-09-18T18:47:49;5.13;;;1.05;;
36575;SDS011;45700;50.930;5.168;2023-09-18T18:51:52;2.42;;;0.93;;
36575;SDS011;45700;50.930;5.168;2023-09-18T18:55:53;2.28;;;1.00;;
36575;SDS011;45700;50.930;5.168;2023-09-18T18:59:54;3.17;;;0.80;;
36575;SDS011;45700;50.930;5.168;2023-09-18T19:03:55;2.20;;;0.85;;
36575;SDS011;45700;50.930;5.168;2023-09-18T19:07:57;4.47;;;0.80;;
36575;SDS011;45700;50.930;5.168;2023-09-18T19:11:58;1.55;;;0.60;;
36575;SDS011;45700;50.930;5.168;2023-09-18T19:15:59;4.35;;;0.90;;
36575;SDS011;45700;50.930;5.168;2023-09-18T19:20:00;1.92;;;0.82;;
36575;SDS011;45700;50.930;5.168;2023-09-18T19:24:02;1.50;;;0.60;;
36575;SDS011;45700;50.930;5.168;2023-09-18T19:28:03;5.55;;;1.38;;
36575;SDS011;45700;50.930;5.168;2023-09-18T19:32:05;2.47;;;0.60;;
36575;SDS011;45700;50.930;5.168;2023-09-18T19:36:06;3.22;;;1.05;;
36575;SDS011;45700;50.930;5.168;2023-09-18T19:40:07;3.42;;;0.70;;
36575;SDS011;45700;50.930;5.168;2023-09-18T19:44:08;5.00;;;1.52;;
36575;SDS011;45700;50.930;5.168;2023-09-18T19:48:09;3.65;;;1.00;;
36575;SDS011;45700;50.930;5.168;2023-09-18T19:52:11;0.63;;;0.50;;
36575;SDS011;45700;50.930;5.168;2023-09-18T19:56:17;1.55;;;0.70;;
36575;SDS011;45700;50.930;5.168;2023-09-18T20:00:18;2.67;;;0.90;;
36575;SDS011;45700;50.930;5.168;2023-09-18T20:04:19;5.88;;;0.75;;
36575;SDS011;45700;50.930;5.168;2023-09-18T20:08:20;5.63;;;1.02;;
36575;SDS011;45700;50.930;5.168;2023-09-18T20:12:22;2.45;;;0.73;;
36575;SDS011;45700;50.930;5.168;2023-09-18T20:16:23;5.07;;;0.88;;
36575;SDS011;45700;50.930;5.168;2023-09-18T20:20:24;3.28;;;0.90;;
36575;SDS011;45700;50.930;5.168;2023-09-18T20:24:26;4.63;;;1.00;;
36575;SDS011;45700;50.930;5.168;2023-09-18T20:28:27;2.28;;;0.70;;
36575;SDS011;45700;50.930;5.168;2023-09-18T20:32:28;7.20;;;1.00;;
36575;SDS011;45700;50.930;5.168;2023-09-18T20:36:29;5.32;;;0.88;;
36575;SDS011;45700;50.930;5.168;2023-09-18T20:40:30;4.70;;;0.63;;
36575;SDS011;45700;50.930;5.168;2023-09-18T20:44:31;3.80;;;0.60;;
36575;SDS011;45700;50.930;5.168;2023-09-18T20:48:32;5.47;;;1.00;;
36575;SDS011;45700;50.930;5.168;2023-09-18T20:52:33;4.00;;;0.75;;
36575;SDS011;45700;50.930;5.168;2023-09-18T20:56:36;7.90;;;1.35;;
36575;SDS011;45700;50.930;5.168;2023-09-18T21:00:38;4.05;;;0.90;;
36575;SDS011;45700;50.930;5.168;2023-09-18T21:04:39;2.92;;;0.90;;
36575;SDS011;45700;50.930;5.168;2023-09-18T21:08:40;2.42;;;0.85;;
36575;SDS011;45700;50.930;5.168;2023-09-18T21:12:43;3.72;;;1.00;;
36575;SDS011;45700;50.930;5.168;2023-09-18T21:16:44;3.90;;;1.05;;
36575;SDS011;45700;50.930;5.168;2023-09-18T21:20:45;3.58;;;1.05;;
36575;SDS011;45700;50.930;5.168;2023-09-18T21:24:46;6.47;;;1.00;;
36575;SDS011;45700;50.930;5.168;2023-09-18T21:28:47;6.57;;;0.98;;
36575;SDS011;45700;50.930;5.168;2023-09-18T21:32:49;7.88;;;0.90;;
36575;SDS011;45700;50.930;5.168;2023-09-18T21:36:50;7.00;;;1.27;;
36575;SDS011;45700;50.930;5.168;2023-09-18T21:40:52;8.70;;;0.95;;
36575;SDS011;45700;50.930;5.168;2023-09-18T21:44:52;4.35;;;1.05;;
36575;SDS011;45700;50.930;5.168;2023-09-18T21:48:53;8.45;;;2.20;;
36575;SDS011;45700;50.930;5.168;2023-09-18T21:52:55;4.85;;;1.38;;
36575;SDS011;45700;50.930;5.168;2023-09-18T21:56:56;5.63;;;0.80;;
36575;SDS011;45700;50.930;5.168;2023-09-18T22:00:57;9.52;;;1.52;;
36575;SDS011;45700;50.930;5.168;2023-09-18T22:04:58;6.28;;;1.33;;
36575;SDS011;45700;50.930;5.168;2023-09-18T22:08:59;9.40;;;1.75;;
36575;SDS011;45700;50.930;5.168;2023-09-18T22:13:01;5.20;;;0.70;;
36575;SDS011;45700;50.930;5.168;2023-09-18T22:17:02;9.55;;;1.73;;
36575;SDS011;45700;50.930;5.168;2023-09-18T22:21:03;5.80;;;1.25;;
36575;SDS011;45700;50.930;5.168;2023-09-18T22:25:04;8.15;;;0.93;;
36575;SDS011;45700;50.930;5.168;2023-09-18T22:29:05;4.88;;;0.93;;
36575;SDS011;45700;50.930;5.168;2023-09-18T22:33:07;6.60;;;0.90;;
36575;SDS011;45700;50.930;5.168;2023-09-18T22:37:08;4.80;;;1.10;;
36575;SDS011;45700;50.930;5.168;2023-09-18T22:57:51;9.70;;;1.20;;
36575;SDS011;45700;50.930;5.168;2023-09-18T23:01:52;7.97;;;1.13;;
36575;SDS011;45700;50.930;5.168;2023-09-18T23:05:53;4.75;;;1.20;;
36575;SDS011;45700;50.930;5.168;2023-09-18T23:09:55;7.03;;;1.77;;
36575;SDS011;45700;50.930;5.168;2023-09-18T23:13:57;5.05;;;1.38;;
36575;SDS011;45700;50.930;5.168;2023-09-18T23:17:58;3.97;;;0.85;;
36575;SDS011;45700;50.930;5.168;2023-09-18T23:22:00;4.78;;;1.20;;
36575;SDS011;45700;50.930;5.168;2023-09-18T23:26:01;8.73;;;1.00;;
36575;SDS011;45700;50.930;5.168;2023-09-18T23:30:03;5.93;;;1.08;;
36575;SDS011;45700;50.930;5.168;2023-09-18T23:34:08;4.95;;;0.90;;
36575;SDS011;45700;50.930;5.168;2023-09-18T23:38:09;7.90;;;1.00;;
36575;SDS011;45700;50.930;5.168;2023-09-18T23:42:10;2.78;;;0.95;;
36575;SDS011;45700;50.930;5.168;2023-09-18T23:46:14;8.85;;;2.38;;
36575;SDS011;45700;50.930;5.168;2023-09-18T23:50:20;5.13;;;1.30;;
36575;SDS011;45700;50.930;5.168;2023-09-18T23:54:26;10.65;;;1.45;;
36575;SDS011;45700;50.930;5.168;2023-09-18T23:58:28;8.68;;;1.25;;
